Time;durP1;ratioP1;P1;durP2;ratioP2;P2;SDS_P1;SDS_P2;PMS_P1;PMS_P2;Temp;Humidity;BMP_temperature;BMP_pressure;BME280_temperature;BME280_humidity;BME280_pressure;Samples;Min_cycle;Max_cycle;Signal;HPM_P1;HPM_P2
2024/01/13 00:00:03;;;;;;;26.57;12.83;;;0.60;1.00;;;;;;5021600;28;20219;-76
2024/01/13 00:02:28;;;;;;;28.87;13.93;;;0.90;1.00;;;;;;5020590;28;20433;-75
2024/01/13 00:04:54;;;;;;;27.50;13.60;;;0.50;1.00;;;;;;5036852;28;20439;-75
2024/01/13 00:07:19;;;;;;;26.97;13.60;;;0.90;1.00;;;;;;5012079;28;20193;-75
2024/01/13 00:09:45;;;;;;;33.10;14.70;;;0.60;1.00;;;;;;5029994;28;20216;-75
2024/01/13 00:12:10;;;;;;;30.33;13.80;;;0.70;1.00;;;;;;5018074;28;20565;-77
2024/01/13 00:14:36;;;;;;;34.47;14.43;;;1.00;1.00;;;;;;5020461;28;20198;-75
2024/01/13 00:17:01;;;;;;;31.30;14.37;;;1.10;1.00;;;;;;5022935;28;20248;-77
2024/01/13 00:19:27;;;;;;;32.33;13.50;;;0.70;1.00;;;;;;5020117;28;20253;-75
2024/01/13 00:21:52;;;;;;;31.77;15.07;;;1.10;1.00;;;;;;5025634;28;20194;-75
2024/01/13 00:24:17;;;;;;;30.17;14.33;;;0.70;1.00;;;;;;5023000;28;20213;-77
2024/01/13 00:26:43;;;;;;;33.73;14.33;;;0.70;1.00;;;;;;5018096;28;20268;-76
2024/01/13 00:29:10;;;;;;;28.17;13.30;;;0.70;1.00;;;;;;5015239;28;20564;-76
2024/01/13 00:31:36;;;;;;;31.60;14.67;;;1.20;1.00;;;;;;5022501;28;20177;-75
2024/01/13 00:34:02;;;;;;;33.27;15.37;;;0.80;1.00;;;;;;5016217;28;20469;-76
2024/01/13 00:36:27;;;;;;;31.07;15.20;;;0.70;1.00;;;;;;5027358;28;20269;-76
2024/01/13 00:38:53;;;;;;;34.07;14.90;;;0.80;1.00;;;;;;5011661;28;20582;-75
2024/01/13 00:41:18;;;;;;;31.30;13.70;;;1.10;1.00;;;;;;5031040;28;20198;-77
2024/01/13 00:43:44;;;;;;;33.67;14.73;;;1.10;1.00;;;;;;5021790;28;20186;-75
2024/01/13 00:46:09;;;;;;;31.57;15.07;;;1.10;1.00;;;;;;5022806;28;20267;-75
2024/01/13 00:48:36;;;;;;;34.07;14.63;;;0.70;1.00;;;;;;5038676;28;20225;-76
2024/01/13 00:51:02;;;;;;;35.90;16.10;;;1.00;1.00;;;;;;5025178;28;20561;-75
2024/01/13 00:53:27;;;;;;;38.40;15.20;;;0.80;1.00;;;;;;5031094;28;20460;-76
2024/01/13 00:55:52;;;;;;;33.00;14.50;;;0.70;1.00;;;;;;5016152;28;20503;-81
2024/01/13 00:58:18;;;;;;;33.43;16.30;;;0.70;1.00;;;;;;5013712;28;20182;-76
2024/01/13 01:00:44;;;;;;;32.43;16.00;;;1.10;1.00;;;;;;5012187;28;20206;-76
2024/01/13 01:03:09;;;;;;;36.00;16.23;;;0.70;1.00;;;;;;5029149;28;20233;-77
2024/01/13 01:05:35;;;;;;;35.57;14.80;;;1.10;1.00;;;;;;5017381;28;20592;-77
2024/01/13 01:08:00;;;;;;;34.10;14.87;;;0.60;1.00;;;;;;5020807;28;20240;-76
2024/01/13 01:10:26;;;;;;;37.80;16.70;;;1.00;1.00;;;;;;5024620;28;20193;-78
2024/01/13 01:12:51;;;;;;;42.90;18.30;;;0.50;1.00;;;;;;5042611;28;20217;-76
2024/01/13 01:15:17;;;;;;;34.80;15.97;;;0.80;1.00;;;;;;5046990;28;20277;-75
2024/01/13 01:17:42;;;;;;;48.23;16.00;;;1.00;1.00;;;;;;5026337;28;20194;-75
2024/01/13 01:20:08;;;;;;;47.20;17.33;;;0.50;1.00;;;;;;5013473;28;20681;-76
2024/01/13 01:22:34;;;;;;;36.03;15.60;;;0.60;1.00;;;;;;5017857;28;20187;-76
2024/01/13 01:24:59;;;;;;;37.00;16.30;;;1.10;1.00;;;;;;5030662;28;20847;-76
2024/01/13 01:27:25;;;;;;;38.00;17.60;;;1.20;1.00;;;;;;5025261;28;20194;-75
2024/01/13 01:29:50;;;;;;;41.83;16.10;;;0.80;1.00;;;;;;5009724;28;20735;-76
2024/01/13 01:32:16;;;;;;;36.33;16.73;;;0.80;1.00;;;;;;5013040;28;20217;-75
2024/01/13 01:34:41;;;;;;;34.00;15.90;;;0.80;1.00;;;;;;5018698;28;20270;-76
2024/01/13 01:37:07;;;;;;;34.93;15.80;;;1.30;1.00;;;;;;5018771;28;20744;-75
2024/01/13 01:39:32;;;;;;;32.40;16.10;;;1.10;1.00;;;;;;5018078;28;20215;-76
2024/01/13 01:41:58;;;;;;;34.90;15.83;;;1.10;1.00;;;;;;5018930;28;20196;-75
2024/01/13 01:44:24;;;;;;;36.30;15.43;;;1.20;1.00;;;;;;5026181;28;20716;-76
2024/01/13 01:46:51;;;;;;;33.10;14.80;;;1.10;1.00;;;;;;5025661;28;20193;-75
2024/01/13 01:49:18;;;;;;;32.30;14.73;;;0.80;1.00;;;;;;5029603;28;20465;-75
2024/01/13 01:51:44;;;;;;;37.57;16.13;;;0.80;1.00;;;;;;5016436;28;20490;-76
2024/01/13 01:54:10;;;;;;;38.60;15.83;;;1.30;1.00;;;;;;5023024;28;20527;-76
2024/01/13 01:56:36;;;;;;;34.27;15.50;;;0.80;1.00;;;;;;5042378;28;20439;-77
2024/01/13 01:59:03;;;;;;;43.20;16.53;;;0.80;1.00;;;;;;5029643;28;20205;-76
2024/01/13 02:01:30;;;;;;;43.57;17.70;;;1.20;1.00;;;;;;5019634;28;20445;-76
2024/01/13 02:03:57;;;;;;;40.40;16.53;;;0.80;1.00;;;;;;5021113;28;20428;-78
2024/01/13 02:06:23;;;;;;;41.00;17.53;;;0.80;1.00;;;;;;5011753;28;20433;-76
2024/01/13 02:08:49;;;;;;;34.50;15.63;;;0.80;1.00;;;;;;5021686;28;20487;-75
2024/01/13 02:11:14;;;;;;;35.90;16.07;;;1.20;1.00;;;;;;5022610;28;20977;-75
2024/01/13 02:13:41;;;;;;;38.63;15.40;;;1.20;1.00;;;;;;5024918;28;20463;-75
2024/01/13 02:16:08;;;;;;;33.90;15.30;;;1.20;1.00;;;;;;5017508;28;20182;-78
2024/01/13 02:18:33;;;;;;;35.10;16.07;;;0.80;1.00;;;;;;5024782;28;20452;-75
2024/01/13 02:20:59;;;;;;;40.00;16.53;;;1.00;1.00;;;;;;5019816;28;20927;-75
2024/01/13 02:23:24;;;;;;;39.40;15.90;;;1.20;1.00;;;;;;5022467;28;20213;-76
2024/01/13 02:25:50;;;;;;;40.87;16.53;;;1.20;1.00;;;;;;5023165;28;20395;-75
2024/01/13 02:28:18;;;;;;;31.70;15.10;;;0.70;1.00;;;;;;5010748;28;20281;-75
2024/01/13 02:30:44;;;;;;;45.37;15.60;;;1.10;1.00;;;;;;5018103;28;20214;-77
2024/01/13 02:33:10;;;;;;;34.13;14.53;;;1.10;1.00;;;;;;5018294;28;20496;-74
2024/01/13 02:35:35;;;;;;;34.43;16.30;;;1.20;1.00;;;;;;5021395;28;20211;-77
2024/01/13 02:38:01;;;;;;;34.37;15.23;;;0.80;1.00;;;;;;5009720;28;20186;-75
2024/01/13 02:40:26;;;;;;;37.20;15.53;;;0.90;1.00;;;;;;5026105;28;20564;-76
2024/01/13 02:42:52;;;;;;;32.30;15.40;;;1.20;1.00;;;;;;5022518;28;20189;-77
2024/01/13 02:45:17;;;;;;;39.50;16.30;;;0.80;1.00;;;;;;5033047;28;20185;-75
2024/01/13 02:47:45;;;;;;;40.20;16.33;;;0.80;1.00;;;;;;5018671;28;20195;-75
2024/01/13 02:50:13;;;;;;;35.83;15.43;;;0.70;1.00;;;;;;5031284;28;20201;-76
2024/01/13 02:52:40;;;;;;;35.90;14.87;;;0.80;1.00;;;;;;5009474;28;20586;-76
2024/01/13 02:55:06;;;;;;;36.30;15.87;;;1.10;1.00;;;;;;5020371;28;20499;-75
2024/01/13 02:57:31;;;;;;;35.53;15.57;;;0.80;1.00;;;;;;5019237;28;20437;-75
2024/01/13 02:59:57;;;;;;;36.87;15.00;;;0.70;1.00;;;;;;5038837;28;20451;-75
2024/01/13 03:02:22;;;;;;;37.27;16.00;;;0.70;1.00;;;;;;5035635;28;20189;-74
2024/01/13 03:04:48;;;;;;;31.97;14.83;;;1.10;1.00;;;;;;5036307;28;20215;-75
2024/01/13 03:07:13;;;;;;;37.50;15.70;;;1.20;1.00;;;;;;5027550;28;20359;-76
2024/01/13 03:09:39;;;;;;;36.90;15.70;;;1.10;1.00;;;;;;5024022;28;20321;-75
2024/01/13 03:12:05;;;;;;;35.77;16.23;;;0.60;1.00;;;;;;5024203;28;20201;-76
2024/01/13 03:14:31;;;;;;;35.63;14.83;;;0.60;1.00;;;;;;5050753;28;20709;-75
2024/01/13 03:16:56;;;;;;;37.57;15.77;;;1.00;1.00;;;;;;5029991;28;20420;-76
2024/01/13 03:19:22;;;;;;;38.00;16.60;;;1.00;1.00;;;;;;5042642;28;20196;-75
2024/01/13 03:21:47;;;;;;;37.80;16.13;;;1.00;1.00;;;;;;5024158;28;20181;-78
2024/01/13 03:24:13;;;;;;;37.70;15.80;;;1.20;1.00;;;;;;5027723;28;20261;-75
2024/01/13 03:26:38;;;;;;;40.87;15.03;;;1.10;1.00;;;;;;5023881;28;20193;-75
2024/01/13 03:29:04;;;;;;;30.77;14.07;;;1.10;1.00;;;;;;5039144;28;20197;-77
2024/01/13 03:31:29;;;;;;;36.60;14.53;;;0.70;1.00;;;;;;5037474;28;20379;-75
2024/01/13 03:33:55;;;;;;;31.63;14.83;;;0.70;1.00;;;;;;5032010;28;20589;-76
2024/01/13 03:36:20;;;;;;;34.03;13.17;;;0.70;1.00;;;;;;5016010;28;20210;-76
2024/01/13 03:38:46;;;;;;;34.67;15.23;;;1.00;1.00;;;;;;5023306;28;20695;-76
2024/01/13 03:41:13;;;;;;;33.70;13.20;;;0.70;1.00;;;;;;5022309;28;20190;-75
2024/01/13 03:43:38;;;;;;;32.43;13.57;;;0.70;1.00;;;;;;5041804;28;20178;-75
2024/01/13 03:46:04;;;;;;;34.17;14.37;;;1.00;1.00;;;;;;5036904;28;20602;-75
2024/01/13 03:48:30;;;;;;;31.67;13.10;;;0.60;1.00;;;;;;5037825;28;20255;-75
2024/01/13 03:50:55;;;;;;;29.67;13.03;;;0.60;1.00;;;;;;5033237;28;20192;-76
2024/01/13 03:53:21;;;;;;;29.63;12.93;;;0.70;1.00;;;;;;5034606;28;20208;-77
2024/01/13 03:55:46;;;;;;;28.40;12.90;;;1.10;1.00;;;;;;5030221;28;20181;-75
2024/01/13 03:58:12;;;;;;;23.67;11.50;;;0.70;1.00;;;;;;5031582;28;20181;-74
2024/01/13 04:00:37;;;;;;;26.67;12.10;;;0.70;1.00;;;;;;5022121;28;20269;-77
2024/01/13 04:03:03;;;;;;;26.83;11.40;;;1.10;1.00;;;;;;5033615;28;20182;-76
2024/01/13 04:05:28;;;;;;;24.33;10.97;;;1.10;1.00;;;;;;5027203;28;20256;-75
2024/01/13 04:07:54;;;;;;;27.27;11.10;;;0.90;1.00;;;;;;5016654;28;20186;-77
2024/01/13 04:10:19;;;;;;;24.50;11.27;;;0.60;1.00;;;;;;5027799;28;20256;-75
2024/01/13 04:12:45;;;;;;;24.13;11.50;;;1.10;1.00;;;;;;5019955;28;20281;-77
2024/01/13 04:15:11;;;;;;;24.77;10.60;;;1.00;1.00;;;;;;5019653;28;20170;-78
2024/01/13 04:17:36;;;;;;;22.13;9.83;;;0.60;1.00;;;;;;5026275;28;20175;-76
2024/01/13 04:20:02;;;;;;;23.17;10.97;;;0.60;1.00;;;;;;5016924;28;20194;-77
2024/01/13 04:22:28;;;;;;;22.10;10.37;;;0.70;1.00;;;;;;5020825;28;20545;-75
2024/01/13 04:24:53;;;;;;;25.63;10.20;;;0.60;1.00;;;;;;5027718;28;20173;-75
2024/01/13 04:27:19;;;;;;;23.67;10.57;;;0.90;1.00;;;;;;5023190;28;20193;-76
2024/01/13 04:29:44;;;;;;;23.90;11.33;;;0.50;1.00;;;;;;5043926;28;20206;-77
2024/01/13 04:32:10;;;;;;;22.10;11.70;;;1.00;1.00;;;;;;5018481;28;20188;-76
2024/01/13 04:34:35;;;;;;;25.90;11.50;;;0.60;1.00;;;;;;5033116;28;20187;-76
2024/01/13 04:37:01;;;;;;;24.30;11.30;;;0.60;1.00;;;;;;5025979;28;20174;-76
2024/01/13 04:39:27;;;;;;;26.27;11.00;;;1.00;1.00;;;;;;5036373;28;20197;-77
2024/01/13 04:41:52;;;;;;;31.83;11.70;;;1.10;1.00;;;;;;5031075;28;20420;-75
2024/01/13 04:44:18;;;;;;;24.33;11.47;;;1.00;1.00;;;;;;5045812;28;20181;-77
2024/01/13 04:46:43;;;;;;;24.57;11.70;;;;;;;;;;5029837;28;20259;-76
2024/01/13 04:49:09;;;;;;;29.07;11.97;;;0.50;1.00;;;;;;5031889;28;20223;-75
2024/01/13 04:51:34;;;;;;;28.93;12.00;;;1.00;1.00;;;;;;5040439;28;20189;-75
2024/01/13 04:54:00;;;;;;;26.13;11.13;;;0.90;1.00;;;;;;5012418;28;20236;-75
2024/01/13 04:56:26;;;;;;;27.97;12.13;;;0.50;1.00;;;;;;5022577;28;20170;-78
2024/01/13 04:58:52;;;;;;;25.00;12.50;;;0.10;1.00;;;;;;5024657;28;20214;-76
2024/01/13 05:01:18;;;;;;;26.83;11.63;;;0.80;1.00;;;;;;5042567;28;20177;-76
2024/01/13 05:03:44;;;;;;;24.33;11.40;;;0.80;1.00;;;;;;5025701;28;20876;-76
2024/01/13 05:06:10;;;;;;;25.90;11.70;;;0.80;1.00;;;;;;5034017;28;20502;-77
2024/01/13 05:08:35;;;;;;;26.00;12.00;;;0.80;1.00;;;;;;5040361;28;20212;-75
2024/01/13 05:11:01;;;;;;;23.60;11.53;;;0.70;1.00;;;;;;5025118;28;20214;-75
2024/01/13 05:13:26;;;;;;;27.10;11.70;;;0.40;1.00;;;;;;5015125;28;20285;-76
2024/01/13 05:15:52;;;;;;;24.40;10.70;;;0.70;1.00;;;;;;5033683;28;20178;-76
2024/01/13 05:18:17;;;;;;;27.80;12.60;;;0.30;1.00;;;;;;5018735;28;20178;-75
2024/01/13 05:20:43;;;;;;;25.20;11.63;;;0.70;1.00;;;;;;5011898;28;20231;-75
2024/01/13 05:23:08;;;;;;;31.97;12.83;;;0.20;1.00;;;;;;5015135;28;20214;-76
2024/01/13 05:25:34;;;;;;;27.93;10.20;;;0.60;1.00;;;;;;5014860;28;20696;-75
2024/01/13 05:28:01;;;;;;;26.83;11.23;;;0.20;1.00;;;;;;5017055;28;20209;-76
2024/01/13 05:30:32;;;;;;;23.33;10.17;;;;;;;;;;5017059;28;20193;-77
2024/01/13 05:32:57;;;;;;;29.80;12.53;;;0.20;1.00;;;;;;5021043;28;20453;-77
2024/01/13 05:35:23;;;;;;;33.03;12.77;;;0.60;1.00;;;;;;5010607;28;20900;-76
2024/01/13 05:37:48;;;;;;;29.93;12.80;;;0.50;1.00;;;;;;5020035;28;20619;-75
2024/01/13 05:40:14;;;;;;;27.73;11.60;;;0.20;1.00;;;;;;5016101;28;20195;-76
2024/01/13 05:42:39;;;;;;;27.10;12.80;;;0.20;1.00;;;;;;5022494;28;20198;-75
2024/01/13 05:45:06;;;;;;;31.93;13.10;;;0.70;1.00;;;;;;5027519;28;20188;-75
2024/01/13 05:47:31;;;;;;;29.50;12.53;;;0.30;1.00;;;;;;5010666;28;20178;-75
2024/01/13 05:49:57;;;;;;;32.47;14.10;;;0.70;1.00;;;;;;5026294;28;20444;-76
2024/01/13 05:52:22;;;;;;;26.63;12.10;;;0.80;1.00;;;;;;5037589;28;20564;-78
2024/01/13 05:54:48;;;;;;;29.43;12.40;;;0.30;1.00;;;;;;5020689;28;20175;-75
2024/01/13 05:57:13;;;;;;;29.17;13.17;;;0.80;1.00;;;;;;5018260;28;20410;-75
2024/01/13 05:59:39;;;;;;;33.97;12.47;;;0.30;1.00;;;;;;5019571;28;20310;-75
2024/01/13 06:02:05;;;;;;;27.80;13.43;;;0.60;1.00;;;;;;5042066;28;20260;-77
2024/01/13 06:04:31;;;;;;;32.20;12.93;;;0.60;1.00;;;;;;5028319;28;20248;-75
2024/01/13 06:06:56;;;;;;;28.50;12.20;;;0.60;1.00;;;;;;5025601;28;20420;-75
2024/01/13 06:09:22;;;;;;;29.40;12.70;;;0.60;1.00;;;;;;5020181;28;20699;-75
2024/01/13 06:11:47;;;;;;;27.53;11.83;;;0.60;1.00;;;;;;5020091;28;20244;-76
2024/01/13 06:14:13;;;;;;;26.40;12.10;;;0.60;1.00;;;;;;5023529;28;20194;-75
2024/01/13 06:16:38;;;;;;;29.70;12.07;;;0.10;1.00;;;;;;5017663;28;20185;-75
2024/01/13 06:19:05;;;;;;;26.93;12.50;;;-0.40;1.00;;;;;;5014795;28;20189;-76
2024/01/13 06:21:31;;;;;;;29.40;12.40;;;0.50;1.00;;;;;;5013448;28;20178;-74
2024/01/13 06:23:58;;;;;;;28.20;11.90;;;0.10;1.00;;;;;;5027168;28;20460;-77
2024/01/13 06:26:25;;;;;;;24.60;11.33;;;0.50;1.00;;;;;;5021143;28;20175;-76
2024/01/13 06:28:50;;;;;;;25.77;11.83;;;0.50;1.00;;;;;;5041073;28;20983;-76
2024/01/13 06:31:16;;;;;;;23.33;10.37;;;0.40;1.00;;;;;;5027205;28;20413;-78
2024/01/13 06:33:41;;;;;;;24.40;12.40;;;0.00;1.00;;;;;;5026491;28;20206;-76
2024/01/13 06:36:07;;;;;;;30.10;11.57;;;0.30;1.00;;;;;;5015776;28;20620;-76
2024/01/13 06:38:32;;;;;;;29.80;10.80;;;0.00;1.00;;;;;;5028902;28;20224;-75
2024/01/13 06:40:58;;;;;;;23.77;10.97;;;0.40;1.00;;;;;;5025968;28;20194;-75
2024/01/13 06:43:23;;;;;;;27.07;11.37;;;0.00;1.00;;;;;;5023911;28;20180;-76
2024/01/13 06:45:49;;;;;;;26.77;11.27;;;-0.10;1.00;;;;;;5027233;28;20183;-75
2024/01/13 06:48:14;;;;;;;29.77;12.83;;;0.40;1.00;;;;;;5025578;28;20649;-77
2024/01/13 06:50:40;;;;;;;28.90;11.30;;;0.00;1.00;;;;;;5014156;28;20182;-75
2024/01/13 06:53:05;;;;;;;26.00;12.23;;;0.10;1.00;;;;;;5017202;28;20521;-76
2024/01/13 06:55:31;;;;;;;23.97;10.97;;;0.10;1.00;;;;;;5037553;28;20223;-78
2024/01/13 06:57:56;;;;;;;30.90;11.27;;;0.10;1.00;;;;;;5018976;28;20702;-76
2024/01/13 07:00:22;;;;;;;29.70;12.03;;;0.20;1.00;;;;;;5014450;28;20273;-76
2024/01/13 07:02:47;;;;;;;23.90;10.60;;;0.60;1.00;;;;;;5009495;28;20186;-75
2024/01/13 07:05:13;;;;;;;24.10;12.37;;;0.60;1.00;;;;;;5028543;28;20227;-76
2024/01/13 07:07:40;;;;;;;25.70;11.57;;;-0.30;1.00;;;;;;5023184;28;20189;-75
2024/01/13 07:10:06;;;;;;;22.13;11.17;;;-0.20;1.00;;;;;;5024899;28;20281;-76
2024/01/13 07:12:32;;;;;;;23.83;11.57;;;0.10;1.00;;;;;;5019780;28;20515;-77
2024/01/13 07:14:57;;;;;;;24.13;11.33;;;-0.30;1.00;;;;;;5013754;28;20477;-76
2024/01/13 07:17:23;;;;;;;25.73;11.80;;;0.10;1.00;;;;;;5029304;28;20174;-76
2024/01/13 07:19:48;;;;;;;22.93;11.23;;;0.10;1.00;;;;;;5026693;28;20193;-77
2024/01/13 07:22:14;;;;;;;30.87;13.50;;;0.20;1.00;;;;;;5029653;28;20259;-76
2024/01/13 07:24:39;;;;;;;24.00;12.50;;;0.20;1.00;;;;;;5031639;28;20316;-76
2024/01/13 07:27:05;;;;;;;26.57;13.17;;;0.30;1.00;;;;;;5009633;28;20167;-75
2024/01/13 07:29:30;;;;;;;28.13;14.07;;;0.70;1.00;;;;;;5023260;28;20271;-75
2024/01/13 07:31:56;;;;;;;28.30;13.00;;;0.30;1.00;;;;;;5033530;28;20831;-76
2024/01/13 07:34:22;;;;;;;27.57;12.13;;;0.30;1.00;;;;;;5018868;28;20296;-76
2024/01/13 07:36:47;;;;;;;24.70;12.30;;;0.80;1.00;;;;;;5020949;28;20637;-75
2024/01/13 07:39:13;;;;;;;25.60;12.70;;;0.40;1.00;;;;;;5025755;28;20675;-75
2024/01/13 07:41:39;;;;;;;24.07;11.70;;;0.80;1.00;;;;;;5027155;28;20206;-75
2024/01/13 07:44:04;;;;;;;29.00;13.10;;;0.80;1.00;;;;;;5009587;28;20285;-76
2024/01/13 07:46:30;;;;;;;31.13;12.80;;;0.80;1.00;;;;;;5021322;28;20982;-76
2024/01/13 07:48:55;;;;;;;25.30;12.33;;;0.50;1.00;;;;;;5037286;28;20608;-78
2024/01/13 07:51:21;;;;;;;25.33;11.60;;;0.50;1.00;;;;;;5025633;28;20598;-78
2024/01/13 07:53:46;;;;;;;25.27;12.00;;;0.80;1.00;;;;;;5025011;28;20241;-76
2024/01/13 07:56:12;;;;;;;27.33;12.87;;;0.40;1.00;;;;;;5013045;28;20182;-76
2024/01/13 07:58:37;;;;;;;26.80;11.90;;;0.40;1.00;;;;;;5028528;28;20236;-77
2024/01/13 08:01:03;;;;;;;23.20;11.13;;;0.50;1.00;;;;;;5036992;28;20206;-77
2024/01/13 08:03:29;;;;;;;23.53;11.20;;;0.40;1.00;;;;;;5026227;28;20240;-76
2024/01/13 08:05:54;;;;;;;19.57;9.93;;;0.80;1.00;;;;;;5021285;28;21393;-75
2024/01/13 08:08:20;;;;;;;22.03;11.47;;;0.30;1.00;;;;;;5020210;28;20484;-75
2024/01/13 08:10:46;;;;;;;23.83;11.80;;;0.30;1.00;;;;;;5022572;28;20169;-75
2024/01/13 08:13:14;;;;;;;26.30;11.37;;;0.30;1.00;;;;;;5032360;28;20572;-75
2024/01/13 08:15:39;;;;;;;25.30;11.13;;;0.70;1.00;;;;;;5040725;28;20435;-75
2024/01/13 08:18:05;;;;;;;25.73;12.27;;;0.00;1.00;;;;;;5025175;28;20926;-76
2024/01/13 08:20:31;;;;;;;29.00;11.90;;;0.30;1.00;;;;;;5041214;28;20197;-75
2024/01/13 08:22:57;;;;;;;23.10;12.10;;;0.60;1.00;;;;;;5022484;28;20182;-76
2024/01/13 08:25:22;;;;;;;21.73;10.27;;;0.30;1.00;;;;;;5032867;28;20676;-76
2024/01/13 08:27:49;;;;;;;25.03;10.77;;;0.70;1.00;;;;;;5047545;28;20280;-77
2024/01/13 08:30:14;;;;;;;26.23;11.90;;;0.70;1.00;;;;;;5025195;28;20304;-76
2024/01/13 08:32:40;;;;;;;27.30;12.00;;;0.40;1.00;;;;;;5023836;28;20985;-77
2024/01/13 08:35:07;;;;;;;23.10;11.13;;;1.00;1.00;;;;;;5043133;28;20175;-76
2024/01/13 08:37:32;;;;;;;24.90;12.63;;;0.50;1.00;;;;;;5027959;28;20247;-77
2024/01/13 08:39:58;;;;;;;24.10;13.20;;;0.50;1.00;;;;;;5037926;28;20495;-78
2024/01/13 08:42:23;;;;;;;25.13;12.53;;;0.60;1.00;;;;;;5022560;28;20174;-76
2024/01/13 08:44:49;;;;;;;26.73;12.30;;;2.70;1.00;;;;;;5027197;28;20566;-76
2024/01/13 08:47:15;;;;;;;28.37;11.90;;;1.10;1.00;;;;;;5018443;28;20170;-76
2024/01/13 08:49:40;;;;;;;20.50;11.27;;;0.60;1.00;;;;;;5036380;28;20274;-76
2024/01/13 08:52:08;;;;;;;29.47;11.40;;;0.60;1.00;;;;;;5047763;28;20231;-75
2024/01/13 08:54:35;;;;;;;26.20;11.97;;;1.00;1.00;;;;;;5018437;28;20293;-76
2024/01/13 08:57:00;;;;;;;27.23;12.83;;;0.90;1.00;;;;;;5018860;28;20484;-76
2024/01/13 08:59:26;;;;;;;27.77;12.80;;;0.70;1.00;;;;;;5019948;28;20425;-75
2024/01/13 09:01:51;;;;;;;25.60;11.57;;;1.10;1.00;;;;;;5025615;28;20182;-75
2024/01/13 09:04:18;;;;;;;24.50;11.50;;;1.30;1.00;;;;;;5028963;28;20189;-75
2024/01/13 09:06:44;;;;;;;25.47;12.20;;;0.80;1.00;;;;;;5026686;28;20212;-75
2024/01/13 09:09:10;;;;;;;22.30;11.80;;;0.90;1.00;;;;;;5030470;28;20463;-76
2024/01/13 09:11:36;;;;;;;26.17;12.17;;;0.90;1.00;;;;;;5018731;28;20185;-76
2024/01/13 09:14:01;;;;;;;23.53;12.57;;;1.30;1.00;;;;;;5027115;28;20564;-77
2024/01/13 09:16:27;;;;;;;24.80;11.97;;;1.00;1.00;;;;;;5016242;28;20211;-75
2024/01/13 09:18:52;;;;;;;20.47;10.90;;;0.90;1.00;;;;;;5025137;28;20208;-75
2024/01/13 09:21:18;;;;;;;27.83;13.10;;;0.80;1.00;;;;;;5021834;28;20617;-76
2024/01/13 09:23:44;;;;;;;19.93;10.90;;;1.30;1.00;;;;;;5024966;28;20177;-75
2024/01/13 09:26:09;;;;;;;23.00;11.20;;;1.30;1.00;;;;;;5033587;28;20256;-76
2024/01/13 09:28:35;;;;;;;20.17;10.10;;;1.00;1.00;;;;;;5026283;28;20220;-75
2024/01/13 09:31:00;;;;;;;20.40;10.50;;;1.40;1.00;;;;;;5041219;28;20252;-78
2024/01/13 09:33:25;;;;;;;20.93;11.57;;;1.40;1.00;;;;;;5019823;28;20194;-75
2024/01/13 09:35:51;;;;;;;23.20;10.57;;;1.50;1.00;;;;;;5032027;28;20185;-76
2024/01/13 09:38:16;;;;;;;24.47;9.70;;;1.10;1.00;;;;;;5020458;28;20165;-76
2024/01/13 09:40:42;;;;;;;22.63;10.27;;;1.50;1.00;;;;;;5021475;28;20261;-77
2024/01/13 09:43:14;;;;;;;23.00;10.53;;;1.60;1.00;;;;;;5033259;28;20178;-76
2024/01/13 09:45:43;;;;;;;20.10;9.37;;;1.50;1.00;;;;;;5014971;28;20707;-78
2024/01/13 09:48:12;;;;;;;20.10;10.00;;;1.30;1.00;;;;;;5024418;28;20421;-78
2024/01/13 09:50:40;;;;;;;18.97;9.80;;;1.20;1.00;;;;;;5013832;28;20421;-77
2024/01/13 09:53:07;;;;;;;21.60;10.47;;;1.80;1.00;;;;;;5041300;28;20984;-77
2024/01/13 09:55:36;;;;;;;19.17;9.57;;;1.80;1.00;;;;;;5033187;28;20421;-78
2024/01/13 09:58:02;;;;;;;17.97;8.37;;;1.30;1.00;;;;;;5023601;28;20435;-74
2024/01/13 10:00:31;;;;;;;16.23;7.50;;;1.30;1.00;;;;;;5041228;28;20528;-77
2024/01/13 10:02:57;;;;;;;17.47;8.93;;;1.50;1.00;;;;;;5020679;28;20210;-75
2024/01/13 10:05:24;;;;;;;13.43;7.83;;;1.20;1.00;;;;;;5029952;28;20442;-75
2024/01/13 10:07:52;;;;;;;20.70;9.37;;;-1.10;1.00;;;;;;5024644;28;20426;-76
2024/01/13 10:10:19;;;;;;;19.43;8.27;;;1.10;1.00;;;;;;5034664;28;20435;-77
2024/01/13 10:12:45;;;;;;;15.60;8.30;;;1.50;1.00;;;;;;5015924;28;20464;-75
2024/01/13 10:15:14;;;;;;;18.93;8.33;;;1.50;1.00;;;;;;5019588;28;20456;-76
2024/01/13 10:17:40;;;;;;;16.77;8.50;;;1.20;1.00;;;;;;5025417;28;20217;-76
2024/01/13 10:20:11;;;;;;;18.23;8.93;;;1.60;1.00;;;;;;5018826;28;20490;-77
2024/01/13 10:22:37;;;;;;;18.63;8.60;;;1.20;1.00;;;;;;5025927;28;20507;-77
2024/01/13 10:25:03;;;;;;;17.77;8.97;;;1.20;1.00;;;;;;5021789;28;20614;-76
2024/01/13 10:27:29;;;;;;;19.73;9.60;;;1.30;1.00;;;;;;5038380;28;20181;-76
2024/01/13 10:29:55;;;;;;;17.60;8.30;;;1.40;1.00;;;;;;5023744;28;20214;-76
2024/01/13 10:32:21;;;;;;;17.90;9.20;;;1.40;1.00;;;;;;5020442;28;20205;-76
2024/01/13 10:34:48;;;;;;;20.07;9.97;;;1.50;1.00;;;;;;5017717;28;20203;-75
2024/01/13 10:37:14;;;;;;;12.83;7.57;;;2.00;1.00;;;;;;5021871;28;20412;-75
2024/01/13 10:39:41;;;;;;;16.83;8.40;;;1.40;1.00;;;;;;5017552;28;20440;-76
2024/01/13 10:42:11;;;;;;;15.67;7.70;;;1.70;1.00;;;;;;5036260;28;20166;-75
2024/01/13 10:44:43;;;;;;;17.67;7.60;;;1.70;1.00;;;;;;5020450;28;20428;-76
2024/01/13 10:47:14;;;;;;;15.60;7.80;;;1.80;1.00;;;;;;5020753;28;20494;-75
2024/01/13 10:49:42;;;;;;;14.20;7.60;;;1.50;1.00;;;;;;5029986;28;21075;-78
2024/01/13 10:52:12;;;;;;;16.53;7.80;;;1.50;1.00;;;;;;5028887;28;20522;-76
2024/01/13 10:54:38;;;;;;;18.20;7.20;;;1.50;1.00;;;;;;5021913;28;20981;-76
2024/01/13 10:57:04;;;;;;;15.40;8.00;;;2.00;1.00;;;;;;5020018;28;20429;-73
2024/01/13 10:59:32;;;;;;;19.00;7.57;;;1.50;1.00;;;;;;5030858;28;20819;-75
2024/01/13 11:01:59;;;;;;;17.57;8.20;;;1.50;1.00;;;;;;5022965;28;20182;-72
2024/01/13 11:04:24;;;;;;;19.13;10.33;;;1.50;1.00;;;;;;5026144;28;20448;-75
2024/01/13 11:06:51;;;;;;;21.33;8.43;;;1.60;1.00;;;;;;5025677;28;20471;-74
2024/01/13 11:09:18;;;;;;;15.07;7.73;;;1.60;1.00;;;;;;5015002;28;20675;-76
2024/01/13 11:11:59;;;;;;;17.57;8.23;;;1.70;1.00;;;;;;5029146;28;20535;-74
2024/01/13 11:14:32;;;;;;;19.17;8.17;;;1.70;1.00;;;;;;5028617;28;20482;-75
2024/01/13 11:16:59;;;;;;;17.60;7.80;;;1.70;1.00;;;;;;5027079;28;20466;-76
2024/01/13 11:19:24;;;;;;;15.17;6.73;;;1.80;1.00;;;;;;5032650;28;20957;-76
2024/01/13 11:21:51;;;;;;;14.07;7.47;;;2.20;1.00;;;;;;5024709;28;20413;-75
2024/01/13 11:24:19;;;;;;;16.53;7.27;;;1.80;1.00;;;;;;5037221;28;20248;-74
2024/01/13 11:26:48;;;;;;;13.13;7.43;;;1.70;1.00;;;;;;5032254;28;20409;-77
2024/01/13 11:29:21;;;;;;;12.47;7.13;;;1.70;1.00;;;;;;5021667;28;20452;-77
2024/01/13 11:31:53;;;;;;;11.70;6.30;;;1.70;1.00;;;;;;5024374;28;20455;-74
2024/01/13 11:34:19;;;;;;;10.00;5.80;;;2.00;1.00;;;;;;5024941;28;21035;-74
2024/01/13 11:36:48;;;;;;;10.03;5.90;;;1.50;1.00;;;;;;5029406;28;20416;-74
2024/01/13 11:39:15;;;;;;;13.20;6.90;;;1.60;1.00;;;;;;5019712;28;20829;-77
2024/01/13 11:41:54;;;;;;;14.10;6.90;;;2.00;1.00;;;;;;5023598;28;20482;-75
2024/01/13 11:44:35;;;;;;;10.10;5.37;;;1.80;1.00;;;;;;5019543;28;21148;-75
2024/01/13 11:47:08;;;;;;;12.23;5.83;;;1.80;1.00;;;;;;5035060;28;20417;-75
2024/01/13 11:49:40;;;;;;;11.93;5.50;;;1.80;1.00;;;;;;5033324;28;20436;-75
2024/01/13 11:52:29;;;;;;;8.90;4.77;;;1.80;1.00;;;;;;5021554;28;20495;-74
2024/01/13 11:54:54;;;;;;;14.43;6.87;;;1.50;1.00;;;;;;5021815;28;20425;-74
2024/01/13 11:57:20;;;;;;;10.27;6.50;;;1.90;1.00;;;;;;5028603;28;20411;-74
2024/01/13 11:59:46;;;;;;;9.47;5.20;;;1.50;1.00;;;;;;5037040;28;20607;-74
2024/01/13 12:02:12;;;;;;;9.77;5.80;;;3.20;1.00;;;;;;5013916;28;20174;-74
2024/01/13 12:04:40;;;;;;;10.40;5.40;;;1.90;1.00;;;;;;5026466;28;20546;-74
2024/01/13 12:07:08;;;;;;;9.70;5.73;;;1.40;1.00;;;;;;5018536;28;20182;-75
2024/01/13 12:09:34;;;;;;;13.30;7.07;;;1.40;1.00;;;;;;5023846;28;20475;-75
2024/01/13 12:12:02;;;;;;;11.80;5.47;;;1.80;1.00;;;;;;5024953;28;20438;-78
2024/01/13 12:14:32;;;;;;;13.33;6.30;;;1.50;1.00;;;;;;5016624;28;20696;-74
2024/01/13 12:16:59;;;;;;;8.80;5.00;;;2.00;1.00;;;;;;5019823;28;20401;-74
2024/01/13 12:19:32;;;;;;;10.60;6.00;;;1.70;1.00;;;;;;5027930;28;20443;-74
2024/01/13 12:21:58;;;;;;;10.57;6.23;;;2.20;1.00;;;;;;5022262;28;20421;-74
2024/01/13 12:24:27;;;;;;;14.63;6.43;;;1.80;1.00;;;;;;5018526;28;20431;-75
2024/01/13 12:26:53;;;;;;;13.60;6.37;;;1.80;1.00;;;;;;5014520;28;20650;-74
2024/01/13 12:29:21;;;;;;;10.20;4.77;;;1.80;1.00;;;;;;5023329;28;20597;-74
2024/01/13 12:31:48;;;;;;;9.37;4.63;;;1.80;1.00;;;;;;5017233;28;20413;-74
2024/01/13 12:34:14;;;;;;;9.57;4.50;;;1.60;1.00;;;;;;5033068;28;20484;-74
2024/01/13 12:36:41;;;;;;;9.20;4.90;;;1.90;1.00;;;;;;5021200;28;20495;-74
2024/01/13 12:39:07;;;;;;;9.60;4.70;;;1.50;1.00;;;;;;5020753;28;20457;-75
2024/01/13 12:41:33;;;;;;;8.77;5.17;;;1.90;1.00;;;;;;5018061;28;20417;-77
2024/01/13 12:44:05;;;;;;;11.33;5.50;;;1.90;1.00;;;;;;5015994;28;20832;-76